Time;durP1;ratioP1;P1;durP2;ratioP2;P2;SDS_P1;SDS_P2;PMS_P1;PMS_P2;Temp;Humidity;BMP_temperature;BMP_pressure;BME280_temperature;BME280_humidity;BME280_pressure;Samples;Min_cycle;Max_cycle;Signal;HPM_P1;HPM_P2
2021/05/30 00:01:07;;;;;;;6.20;4.47;;;;;;;9.39;80.10;98853.94;4979755;28;20213;-69
2021/05/30 00:03:34;;;;;;;5.13;4.73;;;;;;;9.30;81.29;98854.75;4982142;28;20240;-70
2021/05/30 00:06:02;;;;;;;4.50;4.20;;;;;;;9.06;82.95;98854.09;4982942;28;20237;-69
2021/05/30 00:08:30;;;;;;;4.97;4.53;;;;;;;9.05;83.24;98867.47;4982946;28;20217;-71
2021/05/30 00:10:58;;;;;;;4.80;4.50;;;;;;;9.01;83.78;98866.06;4982095;28;20217;-67
2021/05/30 00:13:25;;;;;;;4.53;4.23;;;;;;;8.88;84.49;98861.78;4978857;28;20226;-68
2021/05/30 00:15:53;;;;;;;4.43;4.13;;;;;;;8.83;85.30;98864.84;4982639;28;20221;-69
2021/05/30 00:18:20;;;;;;;4.53;4.20;;;;;;;8.75;85.70;98861.19;4982001;28;20217;-69
2021/05/30 00:20:48;;;;;;;6.20;4.73;;;;;;;8.67;86.27;98857.41;4982589;28;20213;-69
2021/05/30 00:23:15;;;;;;;6.37;4.90;;;;;;;8.64;87.01;98862.09;4980385;28;20233;-69
2021/05/30 00:25:43;;;;;;;5.03;4.73;;;;;;;8.58;88.07;98863.47;4983382;28;20214;-69
2021/05/30 00:28:11;;;;;;;5.17;4.40;;;;;;;8.51;88.56;98862.28;4982306;28;20205;-69
2021/05/30 00:30:38;;;;;;;4.80;3.93;;;;;;;8.44;88.40;98858.47;4982111;28;20217;-69
2021/05/30 00:33:06;;;;;;;5.33;4.93;;;;;;;8.51;87.54;98870.22;4983173;28;20240;-68
2021/05/30 00:35:33;;;;;;;5.27;4.87;;;;;;;8.42;88.40;98865.69;4979478;28;20255;-68
2021/05/30 00:38:01;;;;;;;5.07;4.67;;;;;;;8.34;88.65;98864.53;4983203;28;20209;-69
2021/05/30 00:40:28;;;;;;;4.77;4.47;;;;;;;8.09;90.18;98863.91;4980545;28;20209;-69
2021/05/30 00:42:57;;;;;;;5.03;4.63;;;;;;;8.04;91.01;98860.81;4981207;28;20225;-69
2021/05/30 00:45:24;;;;;;;4.93;4.57;;;;;;;8.04;91.04;98866.09;4979196;28;20233;-69
2021/05/30 00:47:51;;;;;;;5.20;4.70;;;;;;;7.94;91.77;98873.94;4979743;28;20228;-69
2021/05/30 00:50:19;;;;;;;5.90;4.67;;;;;;;7.77;93.23;98877.13;4982370;28;20607;-68
2021/05/30 00:52:46;;;;;;;4.60;4.30;;;;;;;7.75;94.99;98877.22;4982503;28;20202;-69
2021/05/30 00:55:14;;;;;;;5.37;4.90;;;;;;;7.84;94.67;98882.75;4980803;28;20216;-68
2021/05/30 00:57:42;;;;;;;5.80;5.40;;;;;;;7.76;94.60;98878.06;4982271;28;20213;-67
2021/05/30 01:00:13;;;;;;;5.13;4.67;;;;;;;7.67;95.43;98885.78;4984841;28;20284;-69
2021/05/30 01:02:41;;;;;;;5.73;5.23;;;;;;;7.48;96.72;98875.88;4982056;28;20236;-67
2021/05/30 01:05:10;;;;;;;5.27;4.87;;;;;;;7.39;97.27;98881.88;4983337;28;20247;-69
2021/05/30 01:07:41;;;;;;;5.30;4.90;;;;;;;7.33;98.33;98877.06;4980780;28;20206;-69
2021/05/30 01:10:18;;;;;;;5.77;5.17;;;;;;;7.44;99.04;98884.97;4982941;28;20650;-69
2021/05/30 01:12:47;;;;;;;4.70;4.40;;;;;;;7.44;99.24;98878.84;4977954;28;20213;-69
2021/05/30 01:15:16;;;;;;;4.73;4.40;;;;;;;7.32;98.50;98876.25;4982478;28;20209;-70
2021/05/30 01:17:44;;;;;;;5.17;4.83;;;;;;;7.19;100.00;98873.72;4981450;28;20197;-69
2021/05/30 01:20:15;;;;;;;6.97;6.27;;;;;;;7.15;100.00;98874.94;4978760;28;20598;-67
2021/05/30 01:22:43;;;;;;;5.73;5.13;;;;;;;7.01;100.00;98872.53;4981170;28;20236;-69
2021/05/30 01:25:13;;;;;;;5.90;5.40;;;;;;;7.07;100.00;98877.34;4980711;28;20214;-66
2021/05/30 01:27:41;;;;;;;5.43;4.90;;;;;;;7.15;100.00;98872.28;4983281;28;20442;-70
2021/05/30 01:30:10;;;;;;;5.17;4.73;;;;;;;7.15;100.00;98868.81;4982833;28;20240;-69
2021/05/30 01:32:42;;;;;;;6.30;5.17;;;;;;;6.92;100.00;98874.91;4982012;28;20296;-67
2021/05/30 01:35:11;;;;;;;6.70;5.20;;;;;;;6.79;100.00;98876.84;4980537;28;20201;-69
2021/05/30 01:37:38;;;;;;;6.10;5.67;;;;;;;6.64;100.00;98871.78;4980711;28;21152;-68
2021/05/30 01:40:07;;;;;;;5.20;4.80;;;;;;;6.58;100.00;98869.59;4979873;28;20259;-68
2021/05/30 01:42:36;;;;;;;5.60;5.20;;;;;;;6.62;100.00;98878.13;4981779;28;20225;-69
2021/05/30 01:45:04;;;;;;;5.70;5.30;;;;;;;6.55;100.00;98879.56;4983030;28;20236;-70
2021/05/30 01:47:36;;;;;;;6.10;5.50;;;;;;;6.48;100.00;98874.75;4981884;28;20371;-69
2021/05/30 01:50:05;;;;;;;6.03;5.43;;;;;;;6.47;100.00;98882.75;4978994;28;20217;-70
2021/05/30 01:52:33;;;;;;;5.77;5.27;;;;;;;6.40;100.00;98878.91;4981075;28;20206;-69
2021/05/30 01:55:01;;;;;;;6.40;5.90;;;;;;;6.36;100.00;98880.94;4984127;28;20241;-69
2021/05/30 01:57:30;;;;;;;5.83;5.33;;;;;;;6.44;100.00;98883.00;4985464;28;20206;-69
2021/05/30 01:59:58;;;;;;;6.00;5.50;;;;;;;6.48;100.00;98881.81;4986068;28;20501;-68
2021/05/30 02:02:26;;;;;;;5.37;4.97;;;;;;;6.33;100.00;98882.00;4983435;28;20605;-68
2021/05/30 02:04:54;;;;;;;6.07;5.50;;;;;;;6.25;100.00;98889.66;4984905;28;20933;-70
2021/05/30 02:07:21;;;;;;;5.53;5.03;;;;;;;6.21;100.00;98886.41;4985698;28;20206;-69
2021/05/30 02:09:49;;;;;;;6.43;5.83;;;;;;;6.13;100.00;98887.91;4982430;28;20213;-70
2021/05/30 02:12:17;;;;;;;6.77;6.27;;;;;;;6.04;100.00;98885.00;4986225;28;20210;-69
2021/05/30 02:14:45;;;;;;;5.30;4.90;;;;;;;6.02;100.00;98884.28;4983792;28;20225;-69
2021/05/30 02:17:14;;;;;;;7.07;6.07;;;;;;;6.00;100.00;98888.78;4982071;28;20623;-67
2021/05/30 02:19:41;;;;;;;6.23;5.77;;;;;;;6.01;100.00;98889.66;4982990;28;20812;-68
2021/05/30 02:22:08;;;;;;;6.03;5.37;;;;;;;5.98;100.00;98893.31;4985390;28;20217;-70
2021/05/30 02:24:36;;;;;;;6.13;5.63;;;;;;;5.90;100.00;98898.31;4985237;28;20229;-69
2021/05/30 02:27:04;;;;;;;6.10;5.50;;;;;;;5.79;100.00;98889.41;4983862;28;20449;-67
2021/05/30 02:29:36;;;;;;;6.43;5.83;;;;;;;5.94;100.00;98902.41;4983778;28;20799;-70
2021/05/30 02:32:05;;;;;;;6.80;6.20;;;;;;;5.94;100.00;98900.59;4984861;28;20202;-70
2021/05/30 02:34:34;;;;;;;6.67;6.17;;;;;;;5.83;100.00;98897.91;4985271;28;20372;-69
2021/05/30 02:37:02;;;;;;;6.43;5.93;;;;;;;6.07;100.00;98897.13;4984938;28;20209;-69
2021/05/30 02:39:30;;;;;;;6.60;6.00;;;;;;;6.02;100.00;98905.34;4984909;28;20209;-69
2021/05/30 02:41:57;;;;;;;7.07;6.13;;;;;;;5.99;100.00;98907.31;4982022;28;20236;-68
2021/05/30 02:44:25;;;;;;;7.33;6.67;;;;;;;5.98;100.00;98900.38;4983636;28;20229;-70
2021/05/30 02:46:52;;;;;;;6.93;6.40;;;;;;;5.90;100.00;98904.41;4979977;28;20205;-69
2021/05/30 02:49:20;;;;;;;6.63;6.13;;;;;;;5.81;100.00;98897.19;4983235;28;20230;-68
2021/05/30 02:51:48;;;;;;;6.37;5.87;;;;;;;5.79;100.00;98901.72;4982003;28;20240;-68
2021/05/30 02:54:16;;;;;;;6.37;5.83;;;;;;;5.65;100.00;98903.53;4981040;28;20225;-69
2021/05/30 02:56:43;;;;;;;7.40;6.90;;;;;;;5.62;100.00;98901.13;4983381;28;20586;-70
2021/05/30 02:59:11;;;;;;;7.50;6.87;;;;;;;5.58;100.00;98904.94;4983821;28;20213;-70
2021/05/30 03:01:39;;;;;;;7.30;6.60;;;;;;;5.48;100.00;98899.47;4985090;28;20222;-70
2021/05/30 03:04:06;;;;;;;7.77;6.40;;;;;;;5.47;100.00;98899.59;4983972;28;20645;-69
2021/05/30 03:06:34;;;;;;;7.17;5.80;;;;;;;5.45;100.00;98907.59;4983402;28;20629;-70
2021/05/30 03:09:02;;;;;;;7.40;6.80;;;;;;;5.40;100.00;98903.63;4982588;28;20221;-70
2021/05/30 03:11:33;;;;;;;7.77;6.50;;;;;;;5.31;100.00;98908.59;4982850;28;20206;-70
2021/05/30 03:14:01;;;;;;;6.70;6.10;;;;;;;5.32;100.00;98912.03;4983575;28;20261;-69
2021/05/30 03:16:29;;;;;;;7.60;6.90;;;;;;;5.30;100.00;98906.06;4983379;28;20205;-69
2021/05/30 03:18:57;;;;;;;7.20;6.60;;;;;;;5.29;100.00;98907.00;4982660;28;20264;-70
2021/05/30 03:21:27;;;;;;;6.13;5.63;;;;;;;5.32;100.00;98906.78;4984715;28;20256;-70
2021/05/30 03:23:55;;;;;;;6.40;5.83;;;;;;;5.33;100.00;98911.94;4982068;28;20240;-69
2021/05/30 03:26:26;;;;;;;6.73;6.13;;;;;;;5.32;100.00;98912.03;4983645;28;20273;-69
2021/05/30 03:29:06;;;;;;;8.43;6.70;;;;;;;5.33;100.00;98911.09;4984358;28;20601;-70
2021/05/30 03:31:39;;;;;;;8.53;7.07;;;;;;;5.26;100.00;98910.69;4983352;28;20209;-70
2021/05/30 03:34:07;;;;;;;6.60;6.10;;;;;;;5.29;100.00;98907.00;4983087;28;20583;-70
2021/05/30 03:36:35;;;;;;;7.53;6.93;;;;;;;5.32;100.00;98912.03;4983198;28;20276;-69
2021/05/30 03:39:06;;;;;;;7.73;7.13;;;;;;;5.27;100.00;98906.28;4980580;28;20678;-69
2021/05/30 03:41:37;;;;;;;7.33;6.67;;;;;;;5.26;100.00;98908.03;4984156;28;20288;-69
2021/05/30 03:44:06;;;;;;;7.10;6.50;;;;;;;5.33;100.00;98908.47;4979889;28;20229;-69
2021/05/30 03:46:37;;;;;;;6.70;6.10;;;;;;;5.30;100.00;98908.69;4984223;28;20701;-69
2021/05/30 03:49:07;;;;;;;7.33;6.73;;;;;;;5.32;100.00;98907.66;4980974;28;20237;-69
2021/05/30 03:51:34;;;;;;;7.97;7.13;;;;;;;5.42;100.00;98912.25;4981869;28;20212;-68
2021/05/30 03:54:02;;;;;;;7.63;7.00;;;;;;;5.42;100.00;98907.00;4983681;28;20648;-66
2021/05/30 03:56:32;;;;;;;7.60;7.00;;;;;;;5.48;100.00;98904.75;4980714;28;20233;-69
2021/05/30 03:59:01;;;;;;;7.67;7.07;;;;;;;5.49;100.00;98900.34;4978155;28;20316;-70
2021/05/30 04:01:31;;;;;;;7.90;7.27;;;;;;;5.49;100.00;98901.19;4981507;28;20757;-68
2021/05/30 04:03:59;;;;;;;8.23;7.57;;;;;;;5.53;100.00;98896.53;4982000;28;20777;-69
2021/05/30 04:06:28;;;;;;;8.20;7.37;;;;;;;5.58;100.00;98896.22;4980752;28;20213;-69
2021/05/30 04:08:55;;;;;;;7.97;7.27;;;;;;;5.64;100.00;98906.28;4981563;28;20209;-69
2021/05/30 04:11:23;;;;;;;7.53;6.87;;;;;;;5.85;100.00;98901.28;4979907;28;20216;-70
2021/05/30 04:13:53;;;;;;;7.60;7.00;;;;;;;5.79;100.00;98894.66;4981478;28;20269;-69
2021/05/30 04:16:22;;;;;;;8.27;7.63;;;;;;;5.90;100.00;98893.88;4983245;28;20205;-66
2021/05/30 04:18:50;;;;;;;8.30;7.50;;;;;;;6.08;100.00;98907.50;4983168;28;20744;-68
2021/05/30 04:21:18;;;;;;;8.07;7.27;;;;;;;6.15;100.00;98901.78;4982413;28;20213;-67
2021/05/30 04:23:46;;;;;;;8.63;7.87;;;;;;;6.43;100.00;98903.19;4979664;28;20672;-67
2021/05/30 04:26:14;;;;;;;8.57;7.83;;;;;;;6.78;100.00;98904.13;4977794;28;20639;-66
2021/05/30 04:28:42;;;;;;;7.80;7.17;;;;;;;6.63;100.00;98906.13;4982083;28;20229;-67
2021/05/30 04:31:09;;;;;;;8.80;8.10;;;;;;;6.95;100.00;98906.31;4981114;28;20213;-67
2021/05/30 04:33:38;;;;;;;9.47;7.60;;;;;;;6.79;100.00;98906.63;4983333;28;20571;-67
2021/05/30 04:36:05;;;;;;;8.83;7.57;;;;;;;6.99;100.00;98906.91;4983513;28;20213;-67
2021/05/30 04:38:33;;;;;;;8.77;8.07;;;;;;;6.94;100.00;98904.63;4978104;28;20213;-67
2021/05/30 04:41:00;;;;;;;8.27;7.57;;;;;;;7.00;100.00;98908.59;4981427;28;20213;-68
2021/05/30 04:43:28;;;;;;;8.60;7.80;;;;;;;7.05;100.00;98916.97;4982282;28;20256;-68
2021/05/30 04:45:56;;;;;;;9.37;8.57;;;;;;;7.17;100.00;98915.19;4983100;28;20209;-67
2021/05/30 04:48:23;;;;;;;8.03;7.23;;;;;;;7.29;100.00;98913.41;4981682;28;20216;-67
2021/05/30 04:51:05;;;;;;;8.80;8.03;;;;;;;7.40;100.00;98915.19;4978801;28;20768;-66
2021/05/30 04:53:36;;;;;;;9.33;8.43;;;;;;;7.59;100.00;98913.72;4981986;28;20312;-68
2021/05/30 04:56:04;;;;;;;9.10;8.30;;;;;;;7.50;100.00;98915.28;4983095;28;20221;-68
2021/05/30 04:58:33;;;;;;;8.87;8.07;;;;;;;7.59;100.00;98909.31;4982335;28;20209;-69
2021/05/30 05:01:00;;;;;;;9.53;8.43;;;;;;;7.48;100.00;98902.25;4981489;28;20217;-68
2021/05/30 05:03:29;;;;;;;9.30;8.53;;;;;;;7.53;100.00;98902.72;4981134;28;20269;-67
2021/05/30 05:06:00;;;;;;;10.07;9.17;;;;;;;7.83;100.00;98910.91;4982224;28;20233;-68
2021/05/30 05:08:31;;;;;;;9.57;8.57;;;;;;;7.97;99.50;98901.88;4980857;28;20209;-69
2021/05/30 05:10:59;;;;;;;9.60;8.80;;;;;;;8.01;98.20;98913.88;4978830;28;20442;-68
2021/05/30 05:13:27;;;;;;;9.87;8.87;;;;;;;8.17;97.22;98913.44;4981405;28;20229;-65
2021/05/30 05:16:03;;;;;;;10.10;9.20;;;;;;;8.21;97.73;98914.88;4981400;28;20201;-68
2021/05/30 05:18:32;;;;;;;9.47;8.57;;;;;;;8.24;98.14;98900.59;4979162;28;20205;-68
2021/05/30 05:21:03;;;;;;;9.80;8.90;;;;;;;8.44;96.69;98903.38;4980412;28;20293;-69
2021/05/30 05:23:31;;;;;;;9.40;8.60;;;;;;;8.57;95.56;98906.72;4981903;28;20233;-68
2021/05/30 05:26:01;;;;;;;10.10;9.20;;;;;;;8.61;95.30;98905.47;4982852;28;20210;-68
2021/05/30 05:28:29;;;;;;;9.27;8.50;;;;;;;8.64;95.19;98907.88;4982108;28;20209;-66
2021/05/30 05:30:57;;;;;;;11.97;8.87;;;;;;;8.72;93.90;98899.31;4985498;28;20209;-68
2021/05/30 05:33:25;;;;;;;10.47;9.63;;;;;;;8.78;93.16;98912.00;4986274;28;20228;-66
2021/05/30 05:35:52;;;;;;;9.53;8.73;;;;;;;8.91;92.24;98905.66;4985438;28;20213;-67
2021/05/30 05:38:21;;;;;;;10.00;9.10;;;;;;;8.94;92.76;98905.38;4985322;28;20220;-66
2021/05/30 05:40:48;;;;;;;10.83;9.80;;;;;;;9.00;93.03;98904.84;4985192;28;20224;-68
2021/05/30 05:43:16;;;;;;;10.93;9.83;;;;;;;9.04;92.47;98913.38;4982057;28;20233;-67
2021/05/30 05:45:43;;;;;;;10.40;9.17;;;;;;;9.23;90.97;98909.97;4983493;28;20661;-67
2021/05/30 05:48:12;;;;;;;9.63;8.73;;;;;;;9.51;88.73;98913.69;4982355;28;20210;-66
2021/05/30 05:50:40;;;;;;;10.50;9.47;;;;;;;9.47;88.92;98909.66;4986100;28;20590;-68
2021/05/30 05:53:07;;;;;;;11.60;9.50;;;;;;;9.50;88.40;98906.72;4986565;28;20468;-67
2021/05/30 05:55:36;;;;;;;9.57;8.77;;;;;;;9.54;88.37;98907.31;4988088;28;20702;-66
2021/05/30 05:58:07;;;;;;;10.37;9.40;;;;;;;9.60;88.26;98908.56;4983766;28;20209;-67
2021/05/30 06:00:35;;;;;;;10.10;9.13;;;;;;;9.66;88.90;98910.66;4984623;28;20288;-67
2021/05/30 06:03:03;;;;;;;10.97;9.97;;;;;;;9.93;85.10;98918.00;4984928;28;20233;-67
2021/05/30 06:05:31;;;;;;;10.27;9.33;;;;;;;9.90;85.77;98920.06;4981928;28;20554;-66
2021/05/30 06:07:59;;;;;;;10.17;9.27;;;;;;;10.10;85.09;98920.91;4983965;28;20213;-67
2021/05/30 06:10:27;;;;;;;10.20;9.27;;;;;;;10.08;86.35;98923.72;4984919;28;20205;-67
2021/05/30 06:12:56;;;;;;;11.67;9.07;;;;;;;10.18;85.12;98926.34;4984731;28;20205;-67
2021/05/30 06:15:24;;;;;;;10.23;8.73;;;;;;;10.46;83.66;98913.28;4985772;28;20205;-67
2021/05/30 06:17:55;;;;;;;10.93;9.10;;;;;;;10.53;82.33;98918.88;4983557;28;20218;-66
2021/05/30 06:20:23;;;;;;;9.83;8.83;;;;;;;10.75;80.01;98917.72;4985466;28;20643;-66
2021/05/30 06:22:51;;;;;;;10.17;9.27;;;;;;;10.68;79.61;98917.44;4985624;28;20206;-65
2021/05/30 06:25:18;;;;;;;11.13;10.03;;;;;;;10.70;79.11;98912.84;4983686;28;20240;-69
2021/05/30 06:27:46;;;;;;;8.80;8.10;;;;;;;10.77;78.19;98910.47;4985344;28;20212;-67
2021/05/30 06:30:16;;;;;;;9.60;8.60;;;;;;;11.09;76.61;98911.06;4984978;28;20214;-68
2021/05/30 06:32:44;;;;;;;9.70;8.90;;;;;;;11.15;74.45;98908.69;4983223;28;20210;-67
2021/05/30 06:35:12;;;;;;;8.67;7.93;;;;;;;11.06;73.70;98908.69;4981057;28;20438;-68
2021/05/30 06:37:39;;;;;;;8.50;7.73;;;;;;;11.13;74.66;98905.34;4982030;28;20233;-68
2021/05/30 06:40:08;;;;;;;9.10;7.97;;;;;;;11.17;75.10;98911.16;4983363;28;20248;-66
2021/05/30 06:42:36;;;;;;;9.73;8.53;;;;;;;11.38;73.97;98905.66;4979395;28;20214;-69
2021/05/30 06:45:04;;;;;;;10.00;9.10;;;;;;;11.53;71.83;98911.28;4980442;28;20316;-68
2021/05/30 06:47:33;;;;;;;8.80;7.90;;;;;;;11.59;71.34;98917.84;4981227;28;20618;-66
2021/05/30 06:50:00;;;;;;;9.40;8.53;;;;;;;11.77;70.05;98909.09;4983637;28;20822;-69
2021/05/30 06:52:28;;;;;;;9.50;8.60;;;;;;;11.49;71.53;98915.22;4982195;28;20697;-69
2021/05/30 06:54:56;;;;;;;10.53;9.67;;;;;;;11.63;70.50;98908.59;4984582;28;20705;-68
2021/05/30 06:57:24;;;;;;;9.23;8.40;;;;;;;11.65;70.86;98916.44;4982096;28;20225;-67
2021/05/30 06:59:51;;;;;;;9.87;8.20;;;;;;;11.61;71.96;98912.41;4980628;28;20214;-68
2021/05/30 07:02:19;;;;;;;9.87;8.33;;;;;;;11.79;71.51;98905.28;4977928;28;20210;-68
2021/05/30 07:04:47;;;;;;;9.50;8.63;;;;;;;11.88;68.85;98909.69;4979511;28;20229;-68
2021/05/30 07:07:15;;;;;;;8.97;8.17;;;;;;;12.13;68.28;98911.81;4983953;28;20668;-68
2021/05/30 07:09:43;;;;;;;8.30;7.60;;;;;;;12.29;67.49;98905.78;4982385;28;20206;-70
2021/05/30 07:12:11;;;;;;;9.13;8.33;;;;;;;12.18;67.43;98903.38;4978752;28;20567;-67
2021/05/30 07:14:38;;;;;;;8.97;8.10;;;;;;;12.24;67.33;98900.97;4982639;28;20253;-67
2021/05/30 07:17:06;;;;;;;12.33;8.27;;;;;;;12.22;67.98;98904.75;4983841;28;20212;-67
2021/05/30 07:19:34;;;;;;;8.67;7.80;;;;;;;12.38;66.60;98898.72;4982303;28;20216;-70
2021/05/30 07:22:03;;;;;;;8.00;7.20;;;;;;;12.25;66.20;98899.13;4982809;28;20666;-70
2021/05/30 07:24:30;;;;;;;7.63;6.93;;;;;;;12.39;62.76;98895.09;4984053;28;20764;-73
2021/05/30 07:26:58;;;;;;;6.67;6.00;;;;;;;12.48;63.03;98894.16;4981386;28;20453;-72
2021/05/30 07:29:25;;;;;;;7.70;7.10;;;;;;;12.68;63.13;98899.31;4980474;28;20738;-70
2021/05/30 07:31:53;;;;;;;7.90;6.80;;;;;;;12.66;64.35;98895.97;4979681;28;20439;-70
2021/05/30 07:34:20;;;;;;;7.50;6.90;;;;;;;12.82;62.66;98892.59;4980325;28;20689;-72
2021/05/30 07:36:47;;;;;;;7.00;6.30;;;;;;;12.81;63.11;98888.25;4983472;28;20216;-71
2021/05/30 07:39:16;;;;;;;10.03;7.20;;;;;;;12.84;63.38;98888.75;4977957;28;20302;-71
2021/05/30 07:41:46;;;;;;;7.33;6.60;;;;;;;12.80;62.60;98882.09;4984211;28;20578;-72
2021/05/30 07:44:15;;;;;;;7.23;6.63;;;;;;;12.94;63.01;98880.69;4978586;28;20234;-72
2021/05/30 07:46:42;;;;;;;7.70;6.90;;;;;;;13.09;63.13;98885.44;4983587;28;20505;-72
2021/05/30 07:49:10;;;;;;;7.30;6.60;;;;;;;13.07;61.20;98890.06;4983311;28;20555;-74
2021/05/30 07:51:37;;;;;;;7.17;6.57;;;;;;;13.06;62.73;98880.41;4977725;28;20210;-71
2021/05/30 07:54:05;;;;;;;7.47;6.87;;;;;;;13.16;62.18;98892.59;4981804;28;20237;-73
2021/05/30 07:56:36;;;;;;;6.93;6.23;;;;;;;13.09;61.42;98885.44;4981587;28;20205;-73
2021/05/30 07:59:04;;;;;;;6.77;6.20;;;;;;;13.15;61.11;98880.28;4975330;28;20209;-73
2021/05/30 08:01:31;;;;;;;6.40;5.90;;;;;;;13.08;60.83;98879.25;4979877;28;20217;-72
2021/05/30 08:03:58;;;;;;;7.30;6.70;;;;;;;13.08;60.93;98868.63;4980104;28;20244;-71
2021/05/30 08:06:26;;;;;;;7.10;6.50;;;;;;;13.06;61.49;98883.91;4982510;28;20214;-74
2021/05/30 08:08:53;;;;;;;6.23;5.67;;;;;;;12.94;60.56;98893.16;4979090;28;20305;-73
2021/05/30 08:11:21;;;;;;;6.40;5.80;;;;;;;12.86;60.82;98886.78;4980701;28;20209;-70
2021/05/30 08:13:49;;;;;;;6.13;5.63;;;;;;;12.80;60.95;98881.28;4979938;28;20519;-73
2021/05/30 08:16:39;;;;;;;6.80;5.93;;;;;;;12.80;61.56;98881.28;4982013;28;20276;-69
2021/05/30 08:19:07;;;;;;;6.50;6.00;;;;;;;12.90;61.66;98882.00;4983434;28;20214;-71
2021/05/30 08:21:34;;;;;;;6.63;6.10;;;;;;;13.32;57.29;98881.19;4982834;28;20301;-72
2021/05/30 08:24:02;;;;;;;6.03;5.53;;;;;;;13.52;58.08;98877.47;4982669;28;20721;-73
2021/05/30 08:26:29;;;;;;;5.53;5.03;;;;;;;13.87;57.08;98873.75;4982374;28;20205;-72
2021/05/30 08:28:57;;;;;;;5.90;5.40;;;;;;;13.89;56.86;98868.25;4981550;28;20216;-71
2021/05/30 08:31:25;;;;;;;6.27;5.67;;;;;;;13.67;56.05;98870.56;4981948;28;20216;-73
2021/05/30 08:33:52;;;;;;;5.50;5.00;;;;;;;13.61;56.59;98871.19;4982676;28;20809;-72
2021/05/30 08:36:20;;;;;;;6.17;5.20;;;;;;;13.98;55.99;98871.78;4982382;28;20202;-71
2021/05/30 08:38:47;;;;;;;6.60;5.17;;;;;;;14.55;52.74;98864.78;4981099;28;20216;-74
2021/05/30 08:41:18;;;;;;;4.80;4.40;;;;;;;14.83;51.49;98861.75;4980666;28;20668;-70
2021/05/30 08:43:45;;;;;;;4.50;4.10;;;;;;;14.84;50.03;98858.09;4979540;28;20242;-74
2021/05/30 08:46:14;;;;;;;4.80;4.40;;;;;;;14.94;48.89;98853.38;4979852;28;20233;-73
2021/05/30 08:48:41;;;;;;;4.53;3.90;;;;;;;15.25;49.37;98851.81;4977506;28;20209;-72
2021/05/30 08:51:12;;;;;;;4.23;3.93;;;;;;;14.97;49.08;98855.75;4983110;28;20213;-72
2021/05/30 08:53:42;;;;;;;4.77;4.37;;;;;;;14.74;50.10;98853.78;4982035;28;20232;-73
2021/05/30 08:56:12;;;;;;;4.23;3.93;;;;;;;14.61;49.04;98858.78;4980131;28;20216;-72
2021/05/30 08:58:42;;;;;;;4.23;3.83;;;;;;;14.60;49.48;98844.59;4982447;28;20206;-74
2021/05/30 09:01:11;;;;;;;3.83;3.47;;;;;;;14.30;46.71;98846.97;4982478;28;20655;-72
2021/05/30 09:03:54;;;;;;;3.73;3.33;;;;;;;14.38;47.37;98850.63;4982266;28;20229;-74
2021/05/30 09:06:23;;;;;;;3.37;2.90;;;;;;;14.29;47.09;98847.97;4981973;28;20221;-72
2021/05/30 09:08:51;;;;;;;3.40;3.20;;;;;;;14.46;46.99;98856.78;4980526;28;20242;-73
2021/05/30 09:11:40;;;;;;;3.70;3.40;;;;;;;14.63;46.93;98854.13;4982309;28;20206;-74
2021/05/30 09:14:12;;;;;;;3.77;3.47;;;;;;;14.89;45.07;98853.91;4982959;28;20312;-74
2021/05/30 09:16:58;;;;;;;3.90;3.70;;;;;;;15.02;43.00;98849.88;4982935;28;20209;-72
2021/05/30 09:19:35;;;;;;;3.37;3.07;;;;;;;15.18;44.29;98843.66;4981393;28;20231;-73
2021/05/30 09:22:22;;;;;;;3.23;2.90;;;;;;;15.40;44.79;98847.38;4979449;28;20209;-72
2021/05/30 09:25:08;;;;;;;3.33;3.13;;;;;;;15.43;44.30;98844.38;4980082;28;20236;-73
2021/05/30 09:27:38;;;;;;;3.53;3.23;;;;;;;15.77;43.64;98837.00;4980240;28;20213;-72
2021/05/30 09:30:23;;;;;;;4.73;4.43;;;;;;;15.78;41.22;98841.34;4978863;28;20217;-76
2021/05/30 09:33:01;;;;;;;3.37;3.10;;;;;;;15.24;41.34;98834.13;4979256;28;20225;-73
2021/05/30 09:35:43;;;;;;;3.20;3.00;;;;;;;15.62;41.82;98845.78;4978671;28;20213;-73
2021/05/30 09:38:14;;;;;;;3.37;3.10;;;;;;;15.86;41.09;98849.31;4980475;28;20210;-72
2021/05/30 09:40:43;;;;;;;3.00;2.80;;;;;;;16.23;40.76;98840.72;4978783;28;20205;-72
2021/05/30 09:43:15;;;;;;;3.50;3.20;;;;;;;16.52;39.82;98847.16;4975517;28;20232;-73
2021/05/30 09:45:56;;;;;;;3.13;2.90;;;;;;;16.46;35.19;98830.81;4975279;28;20245;-73
2021/05/30 09:48:24;;;;;;;3.33;3.00;;;;;;;16.68;33.87;98828.25;4980353;28;20633;-74
2021/05/30 09:53:56;;;;;;;2.87;2.77;;;;;;;16.91;35.82;98827.38;4976554;28;20225;-71
2021/05/30 09:56:32;;;;;;;3.37;3.07;;;;;;;17.35;35.59;98829.19;4980146;28;20208;-73
2021/05/30 09:59:01;;;;;;;3.60;3.17;;;;;;;17.21;36.21;98822.00;4980659;28;20212;-72
2021/05/30 10:01:28;;;;;;;3.67;3.37;;;;;;;16.95;35.23;98833.16;4977035;28;20218;-71
2021/05/30 10:03:57;;;;;;;3.93;3.47;;;;;;;16.54;37.56;98829.09;4978093;28;20225;-72
2021/05/30 10:06:26;;;;;;;3.10;3.00;;;;;;;16.66;37.73;98832.97;4979720;28;20727;-73
2021/05/30 10:08:58;;;;;;;3.93;3.37;;;;;;;16.59;39.15;98832.03;4980525;28;20202;-73
2021/05/30 10:11:25;;;;;;;3.80;3.50;;;;;;;16.64;36.97;98835.00;4980258;28;20206;-71
2021/05/30 10:13:53;;;;;;;4.03;3.03;;;;;;;16.33;36.46;98835.94;4981361;28;20725;-75
2021/05/30 10:16:21;;;;;;;3.47;3.20;;;;;;;16.56;38.15;98829.72;4981852;28;20205;-75
2021/05/30 10:18:51;;;;;;;3.17;2.90;;;;;;;16.84;37.00;98839.78;4983153;28;20210;-74
2021/05/30 10:21:20;;;;;;;3.33;3.10;;;;;;;16.91;35.90;98833.53;4981356;28;20698;-72
2021/05/30 10:23:51;;;;;;;4.60;3.03;;;;;;;16.98;36.25;98839.03;4983946;28;20232;-70
2021/05/30 10:26:21;;;;;;;3.40;3.10;;;;;;;16.69;35.28;98837.94;4984821;28;20238;-70
2021/05/30 10:28:53;;;;;;;3.37;3.07;;;;;;;17.38;36.63;98833.34;4983457;28;20198;-73
2021/05/30 10:31:23;;;;;;;2.90;2.70;;;;;;;17.73;35.31;98833.53;4983766;28;20205;-69
2021/05/30 10:34:19;;;;;;;3.50;3.20;;;;;;;17.90;32.07;98831.44;4985376;28;20591;-72
2021/05/30 10:37:24;;;;;;;3.40;2.93;;;;;;;17.89;31.65;98829.78;4982690;28;20374;-74
2021/05/30 10:39:56;;;;;;;3.30;3.10;;;;;;;17.23;33.59;98813.78;4983786;28;20261;-74
2021/05/30 10:42:25;;;;;;;3.40;3.20;;;;;;;16.90;35.71;98820.34;4982560;28;20233;-73
2021/05/30 10:44:58;;;;;;;3.47;3.00;;;;;;;17.94;31.80;98830.03;4985008;28;20232;-72
2021/05/30 10:48:05;;;;;;;2.87;2.67;;;;;;;18.47;33.18;98820.81;4983627;28;20209;-74
2021/05/30 10:50:35;;;;;;;2.73;2.63;;;;;;;19.26;31.30;98818.00;4983314;28;20607;-72
2021/05/30 10:53:04;;;;;;;2.73;2.57;;;;;;;19.90;28.05;98818.63;4984913;28;20221;-73
2021/05/30 10:55:33;;;;;;;2.70;2.50;;;;;;;20.43;27.89;98816.16;4982616;28;20209;-72
2021/05/30 10:58:15;;;;;;;2.57;2.37;;;;;;;20.24;27.04;98810.59;4984578;28;20449;-73
2021/05/30 11:00:42;;;;;;;4.90;2.87;;;;;;;19.94;29.93;98819.88;4984313;28;20439;-74
2021/05/30 11:03:12;;;;;;;2.90;2.60;;;;;;;20.30;27.63;98820.50;4984540;28;20725;-73
2021/05/30 11:05:45;;;;;;;4.07;2.70;;;;;;;21.40;26.90;98812.84;4985592;28;20225;-74
2021/05/30 11:08:50;;;;;;;2.80;2.60;;;;;;;21.00;25.33;98818.38;4981730;28;20206;-71
2021/05/30 11:11:19;;;;;;;2.77;2.50;;;;;;;20.49;25.07;98818.84;4981426;28;20210;-73
2021/05/30 11:13:52;;;;;;;2.87;2.67;;;;;;;19.66;25.62;98809.22;4984250;28;20666;-72
2021/05/30 11:16:21;;;;;;;2.40;2.20;;;;;;;20.12;25.61;98826.50;4983316;28;20778;-70
2021/05/30 11:18:56;;;;;;;2.47;2.30;;;;;;;19.48;24.45;98813.31;4984521;28;20210;-72
2021/05/30 11:21:28;;;;;;;2.13;2.03;;;;;;;19.02;24.75;98812.09;4983466;28;20208;-72
2021/05/30 11:23:57;;;;;;;2.20;2.03;;;;;;;19.06;24.58;98807.16;4984642;28;20237;-73
2021/05/30 11:26:25;;;;;;;2.30;2.10;;;;;;;18.54;25.51;98807.44;4978916;28;20225;-73
2021/05/30 11:28:53;;;;;;;3.43;2.40;;;;;;;18.54;25.22;98822.72;4982650;28;20213;-72
2021/05/30 11:31:20;;;;;;;3.00;2.53;;;;;;;18.74;25.84;98823.66;4983051;28;20209;-71
2021/05/30 11:33:54;;;;;;;2.30;2.10;;;;;;;19.14;24.37;98804.31;4981693;28;20218;-73
2021/05/30 11:36:31;;;;;;;2.50;2.30;;;;;;;19.21;24.77;98801.66;4983404;28;20209;-75
2021/05/30 11:39:06;;;;;;;2.27;2.00;;;;;;;19.55;25.82;98809.81;4981129;28;20571;-73
2021/05/30 11:41:36;;;;;;;2.17;2.03;;;;;;;19.67;25.21;98792.91;4983505;28;20213;-72
2021/05/30 11:44:09;;;;;;;2.00;1.90;;;;;;;19.83;24.69;98792.72;4980668;28;20229;-72
2021/05/30 11:46:39;;;;;;;3.03;2.83;;;;;;;19.60;25.89;98783.16;4981165;28;20233;-72
2021/05/30 11:49:12;;;;;;;2.47;2.10;;;;;;;20.01;25.69;98782.22;4981144;28;20253;-74